createdAt,value
2022-08-09T00:00:13.848Z,2.83
2022-08-09T00:02:49.591Z,2.72
2022-08-09T00:06:19.790Z,3.03
2022-08-09T00:08:10.117Z,3.08
2022-08-09T00:10:38.314Z,2.72
2022-08-09T00:13:12.913Z,3.30
2022-08-09T00:15:59.468Z,3.15
2022-08-09T00:18:35.016Z,2.67
2022-08-09T00:23:56.664Z,2.72
2022-08-09T00:26:17.641Z,2.95
2022-08-09T00:28:52.622Z,3.30
2022-08-09T00:31:56.914Z,3.50
2022-08-09T00:34:10.793Z,3.25
2022-08-09T00:36:37.691Z,3.85
2022-08-09T00:39:04.803Z,3.03
2022-08-09T00:44:15.599Z,3.05
2022-08-09T00:44:26.867Z,3.45
2022-08-09T00:47:01.771Z,3.20
2022-08-09T00:49:36.822Z,3.00
2022-08-09T00:52:17.276Z,3.28
2022-08-09T00:54:53.613Z,3.40
2022-08-09T00:57:24.627Z,3.58
2022-08-09T01:00:05.208Z,3.20
2022-08-09T01:02:32.935Z,3.42
2022-08-09T01:05:51.394Z,3.13
2022-08-09T01:08:29.125Z,3.90
2022-08-09T01:11:08.595Z,3.50
2022-08-09T01:13:58.754Z,3.30
2022-08-09T01:16:35.806Z,3.17
2022-08-09T01:19:16.682Z,3.38
2022-08-09T01:21:51.261Z,2.95
2022-08-09T01:24:57.125Z,3.38
2022-08-09T01:27:25.022Z,3.00
2022-08-09T01:29:55.235Z,3.60
2022-08-09T01:32:31.282Z,3.17
2022-08-09T01:35:28.149Z,3.35
2022-08-09T01:38:08.250Z,3.40
2022-08-09T01:40:45.001Z,2.70
2022-08-09T01:43:21.151Z,3.65
2022-08-09T01:45:53.838Z,3.55
2022-08-09T01:48:29.682Z,3.22
2022-08-09T01:50:58.745Z,3.08
2022-08-09T01:53:28.927Z,3.30
2022-08-09T01:56:10.235Z,3.10
2022-08-09T01:58:38.704Z,3.30
2022-08-09T02:01:05.874Z,3.75
2022-08-09T02:03:37.003Z,3.53
2022-08-09T02:06:07.274Z,3.25
2022-08-09T02:08:57.558Z,3.55
2022-08-09T02:11:41.912Z,3.17
2022-08-09T02:14:15.805Z,3.58
2022-08-09T02:17:15.225Z,3.60
2022-08-09T02:19:43.168Z,3.28
2022-08-09T02:22:51.095Z,3.65
2022-08-09T02:25:25.016Z,3.30
2022-08-09T02:28:09.524Z,4.88
2022-08-09T02:30:41.520Z,4.57
2022-08-09T02:33:14.597Z,4.03
2022-08-09T02:36:01.071Z,3.88
2022-08-09T02:38:34.891Z,3.88
2022-08-09T02:41:10.357Z,4.40
2022-08-09T02:43:54.329Z,4.30
2022-08-09T02:46:25.762Z,3.78
2022-08-09T02:48:56.957Z,4.25
2022-08-09T02:51:26.619Z,4.03
2022-08-09T02:54:00.951Z,3.45
2022-08-09T02:56:29.930Z,4.25
2022-08-09T02:58:59.183Z,3.88
2022-08-09T03:01:29.279Z,4.45
2022-08-09T03:04:17.980Z,4.10
2022-08-09T03:06:48.791Z,5.18
2022-08-09T03:09:17.388Z,3.85
2022-08-09T03:12:05.971Z,3.63
2022-08-09T03:14:32.575Z,4.25
2022-08-09T03:17:05.672Z,3.83
2022-08-09T03:19:58.309Z,4.05
2022-08-09T03:22:25.601Z,4.15
2022-08-09T03:25:06.723Z,4.40
2022-08-09T03:27:52.673Z,4.30
2022-08-09T03:30:29.733Z,3.95
2022-08-09T03:33:12.703Z,4.72
2022-08-09T03:36:11.678Z,4.30
2022-08-09T03:38:30.412Z,4.22
2022-08-09T03:40:57.969Z,4.68
2022-08-09T03:43:31.742Z,4.30
2022-08-09T03:46:05.396Z,4.70
2022-08-09T03:48:57.706Z,3.90
2022-08-09T03:51:57.643Z,4.40
2022-08-09T03:54:14.853Z,4.80
2022-08-09T03:56:42.183Z,4.60
2022-08-09T03:59:17.269Z,4.40
2022-08-09T04:01:55.983Z,4.88
2022-08-09T04:04:36.077Z,4.97
2022-08-09T04:07:03.792Z,4.53
2022-08-09T04:09:41.883Z,5.00
2022-08-09T04:12:30.853Z,4.60
2022-08-09T04:15:01.951Z,5.00
2022-08-09T04:17:29.839Z,5.18
2022-08-09T04:19:56.870Z,4.90
2022-08-09T04:22:23.729Z,4.97
2022-08-09T04:24:50.739Z,5.78
2022-08-09T04:27:22.050Z,5.32
2022-08-09T04:29:50.303Z,5.72
2022-08-09T04:32:29.185Z,5.20
2022-08-09T04:34:58.254Z,5.50
2022-08-09T04:37:42.149Z,6.35
2022-08-09T04:40:28.926Z,5.60
2022-08-09T04:43:00.856Z,5.80
2022-08-09T04:45:30.426Z,5.72
2022-08-09T04:48:02.133Z,5.60
2022-08-09T04:50:34.803Z,5.53
2022-08-09T04:53:13.634Z,6.05
2022-08-09T04:55:57.453Z,5.78
2022-08-09T04:58:26.191Z,6.03
2022-08-09T05:00:54.554Z,6.93
2022-08-09T05:03:40.996Z,6.38
2022-08-09T05:06:09.249Z,5.90
2022-08-09T05:08:36.120Z,6.38
2022-08-09T05:11:02.980Z,5.47
2022-08-09T05:13:33.204Z,5.80
2022-08-09T05:16:00.823Z,5.22
2022-08-09T05:18:39.658Z,4.93
2022-08-09T05:21:22.888Z,5.35
2022-08-09T05:23:57.735Z,4.65
2022-08-09T05:26:36.269Z,4.70
2022-08-09T05:29:17.046Z,4.40
2022-08-09T05:31:47.432Z,4.22
2022-08-09T05:34:17.417Z,4.40
2022-08-09T05:36:46.813Z,4.20
2022-08-09T05:39:14.611Z,3.50
2022-08-09T05:41:56.038Z,3.83
2022-08-09T05:44:29.161Z,3.45
2022-08-09T05:47:00.300Z,4.00
2022-08-09T05:50:21.249Z,3.75
2022-08-09T05:52:16.043Z,3.60
2022-08-09T05:54:42.586Z,3.50
2022-08-09T05:57:12.715Z,3.60
2022-08-09T05:59:41.710Z,3.53
2022-08-09T06:02:10.076Z,3.95
2022-08-09T06:04:36.876Z,4.00
2022-08-09T06:07:11.630Z,4.18
2022-08-09T06:09:55.030Z,4.93
2022-08-09T06:12:29.202Z,4.50
2022-08-09T06:15:00.638Z,3.78
2022-08-09T06:17:40.273Z,4.20
2022-08-09T06:20:08.163Z,3.88
2022-08-09T06:22:35.683Z,4.53
2022-08-09T06:25:02.989Z,4.18
2022-08-09T06:27:42.662Z,4.07
2022-08-09T06:30:16.058Z,4.43
2022-08-09T06:32:59.024Z,4.07
2022-08-09T06:35:56.251Z,5.30
2022-08-09T06:38:15.796Z,6.15
2022-08-09T06:40:43.246Z,5.20
2022-08-09T06:43:10.634Z,5.03
2022-08-09T06:46:07.663Z,4.28
2022-08-09T06:48:26.135Z,4.80
2022-08-09T06:50:59.048Z,4.10
2022-08-09T06:53:26.241Z,4.22
2022-08-09T06:55:53.279Z,4.22
2022-08-09T06:58:40.753Z,3.45
2022-08-09T07:01:07.916Z,3.83
2022-08-09T07:03:39.791Z,3.35
2022-08-09T07:06:18.891Z,3.63
2022-08-09T07:08:49.546Z,3.47
2022-08-09T07:11:23.522Z,3.90
2022-08-09T07:14:04.145Z,3.88
2022-08-09T07:16:41.370Z,3.60
2022-08-09T07:19:15.531Z,3.70
2022-08-09T07:21:55.764Z,3.50
2022-08-09T07:24:32.642Z,3.70
2022-08-09T07:27:11.026Z,4.00
2022-08-09T07:29:58.324Z,4.13
2022-08-09T07:32:33.022Z,3.65
2022-08-09T07:35:08.055Z,3.90
2022-08-09T07:37:44.139Z,3.60
2022-08-09T07:40:17.683Z,3.50
2022-08-09T07:43:01.441Z,3.75
2022-08-09T07:45:39.342Z,3.17
2022-08-09T07:48:25.868Z,3.35
2022-08-09T07:51:09.441Z,3.20
2022-08-09T07:54:06.623Z,3.60
2022-08-09T07:56:33.621Z,3.45
2022-08-09T07:59:00.263Z,3.40
2022-08-09T08:01:33.851Z,3.13
2022-08-09T08:04:04.580Z,2.78
2022-08-09T08:06:37.463Z,3.10
2022-08-09T08:09:38.683Z,2.75
2022-08-09T08:12:36.506Z,2.90
2022-08-09T08:14:55.806Z,3.20
2022-08-09T08:17:35.354Z,2.97
2022-08-09T08:20:12.570Z,3.00
2022-08-09T08:22:40.239Z,3.10
2022-08-09T08:25:09.486Z,2.80
2022-08-09T08:27:41.127Z,2.20
2022-08-09T08:30:11.387Z,2.70
2022-08-09T08:32:47.699Z,2.33
2022-08-09T08:35:22.168Z,2.60
2022-08-09T08:37:59.691Z,2.30
2022-08-09T08:40:32.929Z,2.63
2022-08-09T08:43:03.194Z,2.00
2022-08-09T08:45:51.556Z,2.13
2022-08-09T08:48:31.151Z,1.88
2022-08-09T08:51:07.555Z,2.50
2022-08-09T08:53:39.190Z,2.03
2022-08-09T08:56:28.465Z,1.90
2022-08-09T08:58:58.783Z,1.33
2022-08-09T09:01:35.674Z,1.70
2022-08-09T09:04:13.304Z,2.97
2022-08-09T09:06:42.101Z,1.80
2022-08-09T09:09:20.744Z,2.58
2022-08-09T09:12:02.592Z,1.90
2022-08-09T09:14:31.175Z,1.63
2022-08-09T09:16:58.312Z,2.13
2022-08-09T09:19:41.710Z,1.55
2022-08-09T09:22:13.952Z,1.67
2022-08-09T09:24:45.332Z,2.00
2022-08-09T09:28:05.101Z,1.33
2022-08-09T09:30:34.536Z,2.25
2022-08-09T09:33:15.652Z,2.35
2022-08-09T09:36:01.637Z,1.80
2022-08-09T09:38:44.671Z,1.45
2022-08-09T09:41:27.930Z,1.50
2022-08-09T09:44:12.989Z,1.40
2022-08-09T09:46:50.959Z,1.05
2022-08-09T09:49:32.149Z,1.08
2022-08-09T09:52:16.775Z,1.60
2022-08-09T09:55:16.112Z,1.40
2022-08-09T09:58:17.025Z,1.30
2022-08-09T10:00:54.131Z,1.17
2022-08-09T10:03:38.122Z,1.10
2022-08-09T10:06:06.718Z,1.58
2022-08-09T10:08:43.219Z,1.27
2022-08-09T10:11:53.885Z,1.48
2022-08-09T10:14:27.711Z,1.52
2022-08-09T10:17:16.982Z,1.20
2022-08-09T10:19:47.099Z,1.38
2022-08-09T10:22:47.060Z,1.40
2022-08-09T10:25:14.642Z,1.50
2022-08-09T10:27:56.373Z,1.05
2022-08-09T10:34:04.519Z,0.98
2022-08-09T10:36:02.352Z,1.42
2022-08-09T10:38:54.601Z,1.30
2022-08-09T10:41:17.702Z,1.15
2022-08-09T10:43:58.556Z,0.85
2022-08-09T10:46:52.538Z,1.40
2022-08-09T10:49:42.463Z,1.35
2022-08-09T10:52:43.870Z,1.83
2022-08-09T10:55:26.432Z,2.00
2022-08-09T10:57:55.967Z,1.30
2022-08-09T11:00:29.567Z,1.40
2022-08-09T11:03:14.734Z,1.15
2022-08-09T11:06:29.945Z,1.17
2022-08-09T11:09:15.495Z,1.30
2022-08-09T11:11:55.361Z,1.27
2022-08-09T11:14:35.919Z,1.73
2022-08-09T11:17:27.185Z,1.55
2022-08-09T11:20:12.650Z,1.30
2022-08-09T11:22:45.634Z,1.33
2022-08-09T11:25:44.594Z,1.50
2022-08-09T11:28:33.689Z,1.30
2022-08-09T11:31:03.079Z,0.88
2022-08-09T11:33:48.338Z,1.88
2022-08-09T11:36:30.326Z,1.15
2022-08-09T11:39:04.375Z,1.63
2022-08-09T11:41:37.948Z,1.42
2022-08-09T11:44:05.980Z,1.02
2022-08-09T11:46:57.109Z,1.30
2022-08-09T11:50:07.033Z,1.30
2022-08-09T11:53:21.170Z,1.40
2022-08-09T11:55:52.322Z,1.30
2022-08-09T11:58:30.460Z,1.17
2022-08-09T12:01:08.411Z,1.42
2022-08-09T12:03:57.216Z,1.17
2022-08-09T12:06:32.162Z,3.63
2022-08-09T12:09:05.556Z,1.60
2022-08-09T12:12:02.449Z,1.25
2022-08-09T12:14:36.544Z,1.92
2022-08-09T12:17:27.650Z,1.55
2022-08-09T12:19:53.798Z,0.70
2022-08-09T12:22:27.695Z,1.10
2022-08-09T12:25:11.780Z,2.03
2022-08-09T12:29:13.892Z,1.50
2022-08-09T12:30:38.914Z,1.00
2022-08-09T12:33:07.348Z,0.98
2022-08-09T12:35:41.072Z,0.93
2022-08-09T12:38:29.795Z,0.73
2022-08-09T12:41:05.483Z,1.10
2022-08-09T12:44:06.705Z,0.75
2022-08-09T12:46:23.582Z,0.63
2022-08-09T12:48:51.467Z,1.08
2022-08-09T12:51:52.504Z,0.80
2022-08-09T12:54:08.459Z,0.80
2022-08-09T12:56:51.019Z,0.60
2022-08-09T12:59:21.062Z,0.98
2022-08-09T13:01:59.992Z,0.65
2022-08-09T13:04:36.894Z,0.77
2022-08-09T13:07:19.802Z,0.52
2022-08-09T13:10:03.145Z,0.70
2022-08-09T13:12:29.690Z,1.23
2022-08-09T13:15:08.144Z,0.90
2022-08-09T13:18:03.175Z,0.77
2022-08-09T13:20:37.298Z,0.60
2022-08-09T13:24:17.398Z,0.60
2022-08-09T13:26:05.445Z,1.40
2022-08-09T13:28:34.280Z,0.70
2022-08-09T13:32:19.104Z,0.50
2022-08-09T13:33:58.499Z,1.23
2022-08-09T13:36:41.401Z,0.60
2022-08-09T13:41:19.353Z,0.70
2022-08-09T13:42:03.204Z,0.50
2022-08-09T13:44:30.836Z,1.00
2022-08-09T13:47:26.757Z,3.67
2022-08-09T13:49:58.071Z,0.80
2022-08-09T13:52:29.081Z,0.60
2022-08-09T13:55:00.249Z,0.40
2022-08-09T13:57:40.379Z,0.50
2022-08-09T14:00:12.519Z,0.90
2022-08-09T14:03:02.828Z,0.70
2022-08-09T14:05:58.553Z,0.70
2022-08-09T14:08:17.658Z,0.80
2022-08-09T14:10:50.497Z,0.80
2022-08-09T14:13:28.107Z,0.52
2022-08-09T14:16:10.874Z,0.63
2022-08-09T14:18:39.244Z,0.60
2022-08-09T14:21:17.420Z,0.40
2022-08-09T14:23:53.910Z,0.93
2022-08-09T14:26:30.063Z,0.80
2022-08-09T14:28:58.758Z,0.52
2022-08-09T14:31:50.221Z,0.52
2022-08-09T14:34:12.627Z,1.48
2022-08-09T14:36:39.783Z,0.60
2022-08-09T14:39:09.977Z,0.43
2022-08-09T14:41:41.889Z,0.77
2022-08-09T14:44:11.258Z,0.60
2022-08-09T14:47:04.759Z,1.00
2022-08-09T14:49:26.764Z,0.60
2022-08-09T14:51:58.860Z,0.57
2022-08-09T14:54:27.933Z,0.70
2022-08-09T14:56:58.975Z,0.60
2022-08-09T14:59:28.649Z,0.50
2022-08-09T15:01:55.931Z,0.50
2022-08-09T15:04:23.602Z,0.60
2022-08-09T15:06:51.449Z,0.60
2022-08-09T15:09:30.703Z,0.50
2022-08-09T15:12:08.096Z,0.77
2022-08-09T15:14:38.167Z,0.60
2022-08-09T15:17:08.900Z,0.70
2022-08-09T15:19:36.959Z,0.60
2022-08-09T15:22:22.021Z,1.00
2022-08-09T15:24:52.988Z,0.80
2022-08-09T15:27:19.548Z,0.60
2022-08-09T15:30:56.499Z,0.70
2022-08-09T15:32:35.237Z,0.70
2022-08-09T15:35:01.874Z,1.02
2022-08-09T15:37:56.269Z,0.70
2022-08-09T15:40:33.816Z,0.80
2022-08-09T15:43:00.492Z,0.57
2022-08-09T15:45:29.568Z,1.05
2022-08-09T15:48:06.571Z,0.80
2022-08-09T15:50:44.029Z,0.80
2022-08-09T15:54:02.057Z,0.60
2022-08-09T15:58:46.351Z,0.52
2022-08-09T16:01:13.464Z,1.08
2022-08-09T16:03:41.500Z,0.70
2022-08-09T16:06:27.278Z,0.52
2022-08-09T16:08:56.740Z,0.73
2022-08-09T16:11:28.732Z,0.50
2022-08-09T16:14:02.844Z,0.70
2022-08-09T16:16:39.010Z,0.68
2022-08-09T16:19:10.036Z,0.57
2022-08-09T16:21:38.336Z,0.60
2022-08-09T16:24:08.846Z,0.70
2022-08-09T16:26:52.846Z,0.80
2022-08-09T16:29:37.512Z,0.75
2022-08-09T16:32:33.049Z,0.80
2022-08-09T16:34:58.341Z,0.68
2022-08-09T16:37:56.046Z,0.70
2022-08-09T16:40:13.952Z,0.73
2022-08-09T16:42:47.784Z,0.70
2022-08-09T16:45:19.642Z,0.93
2022-08-09T16:48:40.747Z,0.52
2022-08-09T16:50:35.042Z,0.75
2022-08-09T16:53:05.748Z,0.60
2022-08-09T16:56:00.536Z,0.50
2022-08-09T16:58:21.176Z,0.70
2022-08-09T17:00:48.539Z,0.68
2022-08-09T17:03:22.090Z,0.73
2022-08-09T17:06:08.640Z,0.55
2022-08-09T17:09:03.070Z,0.80
2022-08-09T17:11:39.999Z,0.57
2022-08-09T17:14:08.226Z,0.70
2022-08-09T17:16:42.870Z,0.80
2022-08-09T17:19:10.613Z,0.55
2022-08-09T17:21:37.310Z,0.85
2022-08-09T17:24:27.016Z,1.10
2022-08-09T17:26:52.050Z,1.10
2022-08-09T17:29:20.937Z,0.60
2022-08-09T17:31:49.324Z,0.90
2022-08-09T17:35:00.703Z,0.73
2022-08-09T17:37:03.811Z,0.80
2022-08-09T17:39:52.154Z,0.73
2022-08-09T17:42:42.129Z,0.90
2022-08-09T17:45:23.720Z,1.13
2022-08-09T17:48:02.487Z,0.80
2022-08-09T17:50:38.737Z,0.82
2022-08-09T17:53:19.265Z,0.60
2022-08-09T17:55:49.335Z,0.70
2022-08-09T17:58:19.228Z,0.85
2022-08-09T18:00:48.351Z,1.05
2022-08-09T18:03:17.955Z,0.88
2022-08-09T18:05:45.809Z,0.90
2022-08-09T18:08:22.147Z,0.80
2022-08-09T18:11:02.278Z,1.02
2022-08-09T18:13:38.791Z,0.80
2022-08-09T18:16:29.337Z,0.90
2022-08-09T18:18:59.424Z,1.20
2022-08-09T18:21:41.323Z,0.70
2022-08-09T18:24:14.570Z,0.60
2022-08-09T18:26:50.773Z,0.65
2022-08-09T18:30:42.345Z,0.70
2022-08-09T18:32:19.069Z,0.60
2022-08-09T18:34:57.495Z,0.47
2022-08-09T18:37:48.880Z,0.63
2022-08-09T18:40:16.509Z,0.45
2022-08-09T18:42:48.497Z,0.70
2022-08-09T18:45:21.713Z,1.48
2022-08-09T18:48:17.691Z,0.55
2022-08-09T18:50:45.224Z,0.70
2022-08-09T18:53:17.611Z,0.68
2022-08-09T18:55:56.374Z,0.98
2022-08-09T18:58:32.115Z,0.65
2022-08-09T19:01:00.543Z,0.90
2022-08-09T19:03:28.640Z,0.63
2022-08-09T19:06:03.700Z,0.90
2022-08-09T19:08:32.895Z,0.90
2022-08-09T19:10:59.923Z,0.82
2022-08-09T19:13:38.670Z,0.70
2022-08-09T19:16:24.661Z,0.60
2022-08-09T19:19:02.981Z,1.17
2022-08-09T19:21:52.292Z,0.65
2022-08-09T19:24:39.369Z,0.80
2022-08-09T19:27:18.626Z,0.65
2022-08-09T19:30:21.384Z,0.77
2022-08-09T19:32:33.515Z,0.85
2022-08-09T19:35:00.528Z,0.95
2022-08-09T19:37:29.123Z,0.90
2022-08-09T19:40:09.056Z,1.02
2022-08-09T19:42:35.974Z,0.75
2022-08-09T19:45:06.505Z,0.90
2022-08-09T19:47:36.485Z,0.75
2022-08-09T19:50:49.234Z,0.73
2022-08-09T19:52:52.454Z,0.68
2022-08-09T19:55:30.823Z,1.05
2022-08-09T19:58:16.066Z,1.30
2022-08-09T20:00:45.371Z,0.90
2022-08-09T20:04:09.786Z,1.00
2022-08-09T20:06:04.348Z,1.00
2022-08-09T20:08:56.729Z,1.02
2022-08-09T20:11:42.983Z,0.85
2022-08-09T20:14:28.579Z,0.80
2022-08-09T20:16:57.317Z,0.88
2022-08-09T20:19:49.235Z,0.93
2022-08-09T20:22:14.110Z,0.98
2022-08-09T20:24:41.575Z,0.93
2022-08-09T20:27:08.919Z,0.98
2022-08-09T20:30:23.710Z,1.00
2022-08-09T20:32:56.426Z,1.38
2022-08-09T20:36:08.282Z,0.90
2022-08-09T20:42:19.170Z,0.80
2022-08-09T20:49:07.355Z,0.70
2022-08-09T20:52:33.444Z,0.68
2022-08-09T20:58:43.499Z,1.58
2022-08-09T21:01:56.174Z,2.00
2022-08-09T21:05:55.075Z,1.40
2022-08-09T21:07:44.458Z,1.40
2022-08-09T21:13:58.035Z,1.27
2022-08-09T21:18:21.572Z,0.90
2022-08-09T21:20:05.162Z,1.25
2022-08-09T21:23:47.515Z,1.65
2022-08-09T21:29:49.286Z,1.50
2022-08-09T21:32:42.057Z,1.50
2022-08-09T21:35:52.846Z,1.38
2022-08-09T21:38:31.535Z,1.45
2022-08-09T21:41:02.030Z,1.25
2022-08-09T21:43:46.682Z,1.67
2022-08-09T21:46:16.378Z,1.70
2022-08-09T21:48:49.398Z,1.30
2022-08-09T21:53:57.025Z,1.55
2022-08-09T21:56:33.967Z,1.35
2022-08-09T21:59:10.212Z,1.60
2022-08-09T22:01:59.012Z,1.20
2022-08-09T22:04:33.557Z,1.10
2022-08-09T22:07:09.999Z,1.10
2022-08-09T22:09:43.539Z,1.30
2022-08-09T22:12:18.382Z,1.50
2022-08-09T22:14:46.178Z,1.35
2022-08-09T22:17:13.183Z,1.20
2022-08-09T22:19:58.954Z,1.05
2022-08-09T22:22:28.394Z,1.13
2022-08-09T22:26:07.195Z,1.10
2022-08-09T22:27:42.231Z,1.50
2022-08-09T22:30:09.659Z,1.23
2022-08-09T22:32:36.264Z,1.30
2022-08-09T22:36:02.147Z,1.33
2022-08-09T22:38:07.410Z,1.23
2022-08-09T22:40:35.024Z,1.70
2022-08-09T22:43:15.960Z,1.40
2022-08-09T22:48:17.099Z,1.70
2022-08-09T22:48:36.165Z,1.27
2022-08-09T22:51:10.919Z,1.30
2022-08-09T22:54:02.458Z,1.27
2022-08-09T22:56:33.790Z,1.30
2022-08-09T22:59:05.554Z,1.10
2022-08-09T23:01:49.829Z,1.10
2022-08-09T23:04:16.479Z,1.05
2022-08-09T23:07:02.813Z,1.85
2022-08-09T23:09:29.642Z,1.08
2022-08-09T23:11:56.207Z,1.10
2022-08-09T23:14:37.584Z,1.00
2022-08-09T23:17:09.696Z,1.00
2022-08-09T23:20:00.935Z,1.20
2022-08-09T23:22:23.246Z,1.00
2022-08-09T23:24:49.833Z,1.25
2022-08-09T23:27:16.443Z,1.13
2022-08-09T23:29:43.464Z,1.00
2022-08-09T23:32:10.079Z,1.10
2022-08-09T23:34:36.979Z,1.00
2022-08-09T23:37:04.453Z,1.10
2022-08-09T23:39:31.254Z,1.48
2022-08-09T23:41:57.855Z,0.90
2022-08-09T23:44:24.662Z,1.00
2022-08-09T23:46:56.039Z,1.33
2022-08-09T23:49:25.554Z,1.13
2022-08-09T23:51:53.566Z,1.15
2022-08-09T23:54:21.073Z,0.90
2022-08-09T23:56:56.280Z,1.30
2022-08-09T23:59:25.465Z,1.15
